Impacts METAR Board
IDs:

KSTL - St Louis/Lambert Int, MO, US

Updated at: 1300 UTC 07 Jul 2020
Potential Impact None Slight Moderate High
Time 07/01Z 07/02Z 07/03Z 07/04Z 07/05Z 07/06Z 07/07Z 07/08Z 07/09Z 07/10Z 07/11Z 07/12Z 07/13Z
Temp88 87 82 82 83 79 80 78 77 76 76 79 82
Dewpt70 71 68 70 71 69 69 72 71 70 71 72 74
Altim29.95 29.96 29.97 29.99 30.00 29.99 29.97 29.96 29.95 29.97 29.99 30.00 30.01
VIS10 10 10 10 10 10 10 10 10 10 7 8 8
CIG250 100 90 60 75 -- -- -- -- -- -- -- --
CoverBKNBKNBKNOVCBKNSCTFEWCLRCLRCLRFEWFEWFEW
FltCatVFRVFRVFRVFRVFRVFRVFRVFRVFRVFRVFRVFRVFR
WX-----RA-RA-TSRA----------------
WDir2503303609007012010000000
WSpd4 5 9 3 0 9 3 3 0 0 0 0 0
WGst-- -- -- -- -- -- -- -- -- -- -- -- --
Raw hourly METARs
KSTL 070051Z 25004KT 10SM SCT055TCU SCT085 BKN250 31/21 A2995 RMK AO2 SLP127 TCU OHD T03110211
KSTL 070151Z 33005KT 10SM SCT060TCU BKN100 BKN250 31/22 A2996 RMK AO2 SLP130 TCU OHD T03060217
KSTL 070251Z 36009KT 10SM -RA SCT060 BKN090 BKN110 BKN250 28/20 A2997 RMK AO2 RAB38 SLP135 P0000 60000 T02780200 53009
KSTL 070351Z 09003KT 10SM -RA BKN060 OVC120 28/21 A2999 RMK AO2 RAE0259B41 SLP139 P0000 T02780211
KSTL 070451Z 00000KT 10SM -TSRA SCT055CB BKN075 BKN120 BKN250 28/22 A3000 RMK AO2 RAE21B49 TSB27 SLP141 OCNL LTGICCG N TS N MOV N P0000 T02830217
KSTL 070556Z 07009KT 10SM FEW050 FEW100 SCT250 26/21 A2999 RMK AO2 TSE56 T02610206
KSTL 070651Z 12003KT 10SM FEW100 FEW250 27/21 A2997 RMK AO2 TSE0556 SLP135 T02670206
KSTL 070751Z 10003KT 10SM CLR 26/22 A2996 RMK AO2 SLP133 T02560222
KSTL 070851Z 00000KT 10SM CLR 25/22 A2995 RMK AO2 SLP128 T02500217 56011
KSTL 070951Z 00000KT 10SM CLR 24/21 A2997 RMK AO2 SLP134 T02440211
KSTL 071051Z 00000KT 7SM FEW250 24/22 A2999 RMK AO2 SLP139 T02440217
KSTL 071151Z 00000KT 8SM FEW250 26/22 A3000 RMK AO2 SLP144 T02610222 10267 20244 51015
KSTL 071251Z 00000KT 8SM FEW250 28/23 A3001 RMK AO2 SLP148 T02780233



Page loaded:  13:08 UTC  |   06:08 AM Pacific  |   07:08 AM Mountain  |   08:08 AM Central  |   09:08 AM Eastern

 

ADVISORIES

FORECASTS

FORECASTS

OBSERVATIONS

USER TOOLS

ABOUT US